Time;durP1;ratioP1;P1;durP2;ratioP2;P2;SDS_P1;SDS_P2;PMS_P1;PMS_P2;Temp;Humidity;BMP_temperature;BMP_pressure;BME280_temperature;BME280_humidity;BME280_pressure;Samples;Min_cycle;Max_cycle;Signal;HPM_P1;HPM_P2
2021/08/03 00:00:57;;;;;;;4.72;3.30;;;12.10;99.90;;;;;;5080664;28;20383;-78
2021/08/03 00:03:38;;;;;;;5.00;3.50;;;12.00;99.90;;;;;;5063977;28;20380;-80
2021/08/03 00:06:15;;;;;;;6.43;3.65;;;11.90;99.90;;;;;;5061295;28;20382;-80
2021/08/03 00:08:48;;;;;;;4.97;3.13;;;11.80;99.90;;;;;;5052866;28;20378;-77
2021/08/03 00:11:14;;;;;;;4.93;3.13;;;11.80;99.90;;;;;;5069414;28;20465;-79
2021/08/03 00:13:40;;;;;;;6.70;3.70;;;11.80;99.90;;;;;;5069253;28;20473;-80
2021/08/03 00:16:08;;;;;;;8.25;3.60;;;11.80;99.90;;;;;;5068930;28;20366;-78
2021/08/03 00:18:39;;;;;;;5.43;2.90;;;11.70;99.90;;;;;;5068927;28;20486;-78
2021/08/03 00:21:07;;;;;;;5.45;3.08;;;11.70;99.90;;;;;;5069169;28;20427;-78
2021/08/03 00:23:32;;;;;;;6.57;3.33;;;11.70;99.90;;;;;;5051084;28;20744;-79
2021/08/03 00:25:58;;;;;;;7.15;3.42;;;11.70;99.90;;;;;;5070578;28;20375;-78
2021/08/03 00:28:25;;;;;;;5.63;3.17;;;11.70;99.90;;;;;;5071066;28;21193;-81
2021/08/03 00:30:51;;;;;;;4.57;3.25;;;11.70;99.90;;;;;;5070959;28;20370;-78
2021/08/03 00:33:18;;;;;;;4.80;3.23;;;11.60;99.90;;;;;;5070910;28;20457;-77
2021/08/03 00:35:47;;;;;;;6.70;3.40;;;11.50;99.90;;;;;;5053237;28;20464;-79
2021/08/03 00:38:13;;;;;;;4.63;3.55;;;11.60;99.90;;;;;;5070811;28;20390;-79
2021/08/03 00:40:55;;;;;;;4.93;3.40;;;11.50;99.90;;;;;;5070766;28;20377;-79
2021/08/03 00:43:20;;;;;;;4.38;3.45;;;11.50;99.90;;;;;;5070497;28;20370;-79
2021/08/03 00:45:46;;;;;;;5.18;3.33;;;11.50;99.90;;;;;;5070995;28;20443;-78
2021/08/03 00:48:12;;;;;;;4.63;2.95;;;11.50;99.90;;;;;;5070700;28;20384;-79
2021/08/03 00:50:37;;;;;;;4.63;3.30;;;11.50;99.90;;;;;;5070749;28;20461;-76
2021/08/03 00:53:03;;;;;;;4.30;3.40;;;11.50;99.90;;;;;;5070573;28;20373;-79
2021/08/03 00:55:29;;;;;;;4.40;3.00;;;11.50;99.90;;;;;;5070524;28;20379;-77
2021/08/03 00:57:55;;;;;;;4.47;3.20;;;11.40;99.90;;;;;;5070382;28;20408;-79
2021/08/03 01:00:21;;;;;;;4.93;3.25;;;11.40;99.90;;;;;;5070126;28;20382;-80
2021/08/03 01:02:47;;;;;;;5.83;3.10;;;11.40;99.90;;;;;;5052699;28;20382;-79
2021/08/03 01:05:13;;;;;;;4.70;3.00;;;11.30;99.90;;;;;;5070315;28;20424;-77
2021/08/03 01:07:57;;;;;;;4.22;3.08;;;11.20;99.90;;;;;;5070208;28;20377;-80
2021/08/03 01:10:34;;;;;;;6.60;3.33;;;11.20;99.90;;;;;;5052421;28;20390;-79
2021/08/03 01:13:29;;;;;;;4.63;3.08;;;11.10;99.90;;;;;;5070444;28;20468;-79
2021/08/03 01:16:00;;;;;;;6.05;3.60;;;11.10;99.90;;;;;;5052596;28;20386;-80
2021/08/03 01:18:47;;;;;;;7.90;3.63;;;11.00;99.90;;;;;;5070208;28;20405;-79
2021/08/03 01:21:22;;;;;;;6.40;3.53;;;11.00;99.90;;;;;;5052450;28;20732;-79
2021/08/03 01:24:19;;;;;;;4.33;3.50;;;11.00;99.90;;;;;;5070253;28;20408;-80
2021/08/03 01:26:56;;;;;;;3.85;3.20;;;11.00;99.90;;;;;;5070241;28;20374;-78
2021/08/03 01:29:26;;;;;;;4.72;3.33;;;11.00;99.90;;;;;;5069671;28;20933;-76
2021/08/03 01:31:56;;;;;;;5.80;3.50;;;10.90;99.90;;;;;;5070220;28;20876;-78
2021/08/03 01:34:26;;;;;;;4.72;3.05;;;10.90;99.90;;;;;;5070606;28;20366;-78
2021/08/03 01:36:55;;;;;;;5.18;3.28;;;10.90;99.90;;;;;;5070275;28;20512;-77
2021/08/03 01:39:28;;;;;;;5.13;3.30;;;10.90;99.90;;;;;;5052112;28;20398;-78
2021/08/03 01:41:55;;;;;;;5.95;3.40;;;10.90;99.90;;;;;;5070146;28;20461;-79
2021/08/03 01:44:22;;;;;;;4.57;3.00;;;10.90;99.90;;;;;;5069915;28;20459;-80
2021/08/03 01:46:48;;;;;;;3.53;2.80;;;10.90;99.90;;;;;;5052032;28;20516;-80
2021/08/03 01:49:18;;;;;;;5.05;3.35;;;10.90;99.90;;;;;;5070378;28;20373;-79
2021/08/03 01:51:47;;;;;;;4.15;3.38;;;10.90;99.90;;;;;;5070070;28;20378;-78
2021/08/03 01:54:13;;;;;;;5.47;3.70;;;10.90;99.90;;;;;;5069867;28;20382;-79
2021/08/03 01:56:41;;;;;;;4.75;3.33;;;10.90;99.90;;;;;;5051748;28;20382;-79
2021/08/03 01:59:08;;;;;;;4.57;3.55;;;11.00;99.90;;;;;;5069422;28;20563;-78
2021/08/03 02:01:35;;;;;;;3.92;3.05;;;11.00;99.90;;;;;;5069545;28;20886;-80
2021/08/03 02:04:01;;;;;;;4.68;3.28;;;11.10;99.90;;;;;;5051489;28;20955;-78
2021/08/03 02:06:27;;;;;;;6.30;3.80;;;11.10;99.90;;;;;;5069269;28;20393;-79
2021/08/03 02:08:58;;;;;;;4.70;3.25;;;11.10;99.90;;;;;;5051341;28;20455;-80
2021/08/03 02:11:25;;;;;;;4.55;3.30;;;11.10;99.90;;;;;;5069338;28;20378;-76
2021/08/03 02:13:52;;;;;;;4.68;2.97;;;11.10;99.90;;;;;;5069318;28;20398;-77
2021/08/03 02:16:17;;;;;;;3.80;2.97;;;11.10;99.90;;;;;;5069176;28;20370;-78
2021/08/03 02:18:46;;;;;;;6.77;3.13;;;11.10;99.90;;;;;;5069497;28;20409;-78
2021/08/03 02:21:16;;;;;;;5.53;3.23;;;11.20;99.90;;;;;;5069358;28;20380;-78
2021/08/03 02:23:41;;;;;;;4.40;3.15;;;11.10;99.90;;;;;;5070401;28;20428;-79
2021/08/03 02:26:09;;;;;;;6.60;3.07;;;11.10;99.90;;;;;;5069574;28;20892;-80
2021/08/03 02:28:34;;;;;;;6.63;3.22;;;11.10;99.90;;;;;;5051491;28;20956;-77
2021/08/03 02:31:04;;;;;;;4.13;3.17;;;11.00;99.90;;;;;;5070151;28;20377;-79
2021/08/03 02:33:40;;;;;;;5.35;3.13;;;11.00;99.90;;;;;;5070070;28;20401;-80
2021/08/03 02:36:11;;;;;;;5.65;3.10;;;11.00;99.90;;;;;;5069985;28;20378;-80
2021/08/03 02:38:41;;;;;;;4.97;2.95;;;11.00;99.90;;;;;;5051697;28;20417;-78
2021/08/03 02:41:07;;;;;;;3.65;3.20;;;10.90;99.90;;;;;;5069385;28;20459;-80
2021/08/03 02:43:33;;;;;;;6.20;3.40;;;10.90;99.90;;;;;;5069404;28;20390;-77
2021/08/03 02:46:04;;;;;;;4.97;3.20;;;10.90;99.90;;;;;;5069722;28;20398;-80
2021/08/03 02:48:31;;;;;;;4.53;3.23;;;10.90;99.90;;;;;;5051652;28;20389;-78
2021/08/03 02:50:58;;;;;;;4.72;3.17;;;10.80;99.90;;;;;;5069240;28;20446;-76
2021/08/03 02:53:49;;;;;;;4.80;3.20;;;10.80;99.90;;;;;;5068992;28;20370;-77
2021/08/03 02:56:17;;;;;;;4.65;3.30;;;10.70;99.90;;;;;;5051399;28;20895;-79
2021/08/03 02:58:53;;;;;;;3.72;3.13;;;10.70;99.90;;;;;;5069776;28;20438;-77
2021/08/03 03:01:22;;;;;;;5.50;3.53;;;10.80;99.90;;;;;;5051446;28;20886;-78
2021/08/03 03:03:52;;;;;;;4.28;3.53;;;10.90;99.90;;;;;;5068752;28;20836;-77
2021/08/03 03:06:21;;;;;;;4.05;3.65;;;10.80;99.90;;;;;;5050412;28;20879;-79
2021/08/03 03:08:46;;;;;;;4.07;3.20;;;10.90;99.90;;;;;;5068470;28;20379;-79
2021/08/03 03:11:15;;;;;;;6.20;3.47;;;11.00;99.90;;;;;;5068515;28;20389;-77
2021/08/03 03:13:59;;;;;;;7.53;3.50;;;10.90;99.90;;;;;;5068658;28;20419;-78
2021/08/03 03:16:26;;;;;;;6.63;3.70;;;10.90;99.90;;;;;;5069079;28;20453;-78
2021/08/03 03:18:56;;;;;;;4.67;3.43;;;10.90;99.90;;;;;;5068960;28;20401;-80
2021/08/03 03:21:22;;;;;;;5.22;3.35;;;11.00;99.90;;;;;;5068401;28;20461;-78
2021/08/03 03:23:49;;;;;;;4.55;3.30;;;11.00;99.90;;;;;;5068383;28;20378;-79
2021/08/03 03:26:16;;;;;;;6.43;3.40;;;11.10;99.90;;;;;;5068458;28;20362;-79
2021/08/03 03:29:02;;;;;;;5.13;3.28;;;11.10;99.90;;;;;;5068454;28;20389;-80
2021/08/03 03:31:32;;;;;;;5.45;3.63;;;11.20;99.90;;;;;;5050961;28;20396;-80
2021/08/03 03:34:02;;;;;;;8.07;3.50;;;11.30;99.90;;;;;;5068800;28;20374;-78
2021/08/03 03:36:31;;;;;;;6.88;3.55;;;11.30;99.90;;;;;;5068845;28;20393;-77
2021/08/03 03:38:59;;;;;;;3.92;3.30;;;11.40;99.90;;;;;;5068611;28;20405;-78
2021/08/03 03:41:26;;;;;;;4.47;3.50;;;11.40;99.90;;;;;;5068879;28;20408;-77
2021/08/03 03:43:52;;;;;;;5.05;3.30;;;11.50;99.90;;;;;;5069119;28;20397;-80
2021/08/03 03:46:21;;;;;;;6.05;3.03;;;11.50;99.90;;;;;;5069032;28;20409;-78
2021/08/03 03:49:18;;;;;;;4.95;3.83;;;11.60;99.90;;;;;;5068965;28;20382;-78
2021/08/03 03:51:44;;;;;;;7.40;3.53;;;11.70;99.90;;;;;;5031250;28;20370;-80
2021/08/03 03:54:26;;;;;;;7.35;4.03;;;11.70;99.90;;;;;;5072070;28;20404;-78
2021/08/03 03:57:04;;;;;;;8.32;3.58;;;11.70;99.90;;;;;;5053984;28;20385;-77
2021/08/03 03:59:30;;;;;;;9.07;3.63;;;11.70;99.90;;;;;;5071379;28;20413;-80
2021/08/03 04:02:00;;;;;;;5.32;3.03;;;11.80;99.90;;;;;;5071894;28;20395;-78
2021/08/03 04:04:28;;;;;;;6.43;3.55;;;11.80;99.90;;;;;;5072386;28;20961;-79
2021/08/03 04:06:53;;;;;;;4.03;3.10;;;11.90;99.90;;;;;;5072530;28;20370;-80
2021/08/03 04:09:23;;;;;;;5.57;3.22;;;12.00;99.90;;;;;;5072900;28;20370;-79
2021/08/03 04:11:51;;;;;;;7.65;3.90;;;12.10;99.90;;;;;;5054685;28;20732;-80
2021/08/03 04:14:22;;;;;;;8.30;3.20;;;12.10;99.90;;;;;;5071822;28;20378;-80
2021/08/03 04:16:49;;;;;;;6.78;3.60;;;12.20;99.90;;;;;;5054062;28;20437;-80
2021/08/03 04:19:14;;;;;;;4.40;3.10;;;12.30;99.90;;;;;;5072516;28;20403;-79
2021/08/03 04:21:40;;;;;;;4.77;2.93;;;12.50;99.90;;;;;;5072518;28;20432;-76
2021/08/03 04:24:06;;;;;;;4.50;3.28;;;12.50;99.90;;;;;;5072606;28;20581;-80
2021/08/03 04:26:32;;;;;;;7.43;3.70;;;12.60;99.90;;;;;;5054157;28;20744;-78
2021/08/03 04:28:57;;;;;;;4.60;3.33;;;12.70;99.90;;;;;;5072241;28;20378;-78
2021/08/03 04:31:23;;;;;;;6.10;3.60;;;12.80;99.90;;;;;;5054391;28;20969;-80
2021/08/03 04:33:50;;;;;;;5.43;3.15;;;12.80;99.90;;;;;;5072073;28;20384;-79
2021/08/03 04:36:16;;;;;;;6.97;3.47;;;13.00;99.90;;;;;;5072466;28;20883;-77
2021/08/03 04:38:41;;;;;;;4.23;3.23;;;13.00;99.90;;;;;;5054900;28;20400;-77
2021/08/03 04:41:07;;;;;;;4.90;3.30;;;13.10;99.90;;;;;;5054179;28;20959;-79
2021/08/03 04:43:33;;;;;;;4.82;3.22;;;13.20;99.90;;;;;;5071955;28;20378;-80
2021/08/03 04:45:58;;;;;;;5.87;3.40;;;13.30;99.90;;;;;;5071680;28;20807;-81
2021/08/03 04:48:24;;;;;;;4.53;2.83;;;13.30;99.90;;;;;;5072179;28;20468;-80
2021/08/03 04:50:49;;;;;;;6.43;3.08;;;13.40;99.90;;;;;;5071872;28;20397;-78
2021/08/03 04:53:15;;;;;;;4.73;2.93;;;13.50;99.90;;;;;;5072376;28;20415;-79
2021/08/03 04:55:41;;;;;;;4.50;3.00;;;13.50;99.90;;;;;;5071373;28;20727;-79
2021/08/03 04:58:06;;;;;;;5.40;3.10;;;13.60;99.90;;;;;;5070648;28;20884;-79
2021/08/03 05:00:32;;;;;;;7.33;3.60;;;13.70;99.90;;;;;;5052813;28;20365;-76
2021/08/03 05:02:57;;;;;;;6.05;3.17;;;13.80;99.90;;;;;;5069765;28;20864;-79
2021/08/03 05:05:24;;;;;;;7.67;3.80;;;14.00;99.90;;;;;;5070492;28;20445;-79
2021/08/03 05:07:57;;;;;;;12.48;3.80;;;14.20;99.90;;;;;;5071060;28;20408;-79
2021/08/03 05:10:22;;;;;;;6.82;3.33;;;14.40;99.90;;;;;;5070787;28;20937;-80
2021/08/03 05:12:48;;;;;;;7.37;3.23;;;14.60;99.90;;;;;;5070701;28;20370;-78
2021/08/03 05:15:14;;;;;;;4.68;3.20;;;14.80;99.90;;;;;;5070734;28;20378;-79
2021/08/03 05:17:39;;;;;;;5.67;3.50;;;15.10;99.90;;;;;;5070279;28;20737;-78
2021/08/03 05:20:06;;;;;;;6.18;2.85;;;15.20;99.90;;;;;;5070042;28;20450;-80
2021/08/03 05:22:31;;;;;;;6.65;3.70;;;15.40;99.90;;;;;;5070486;28;20413;-81
2021/08/03 05:24:58;;;;;;;6.95;3.17;;;15.60;99.90;;;;;;5070350;28;20452;-80
2021/08/03 05:27:24;;;;;;;8.98;3.25;;;15.70;99.90;;;;;;5070130;28;20375;-77
2021/08/03 05:29:50;;;;;;;5.95;3.03;;;15.90;99.90;;;;;;5070082;28;20393;-80
2021/08/03 05:32:16;;;;;;;6.70;2.90;;;16.00;99.90;;;;;;5069645;28;20370;-78
2021/08/03 05:34:41;;;;;;;4.30;2.90;;;16.20;99.90;;;;;;5070095;28;20370;-80
2021/08/03 05:37:07;;;;;;;4.80;3.00;;;16.40;99.90;;;;;;5069941;28;20845;-80
2021/08/03 05:39:33;;;;;;;6.22;2.78;;;16.60;99.90;;;;;;5070144;28;20402;-77
2021/08/03 05:42:00;;;;;;;5.80;2.95;;;16.80;99.90;;;;;;5070203;28;20465;-78
2021/08/03 05:44:25;;;;;;;4.75;2.92;;;16.90;99.90;;;;;;5070735;28;20374;-78
2021/08/03 05:46:51;;;;;;;7.00;3.03;;;17.00;99.90;;;;;;5070721;28;20381;-78
2021/08/03 05:49:17;;;;;;;5.70;2.90;;;17.00;99.90;;;;;;5070017;28;20453;-80
2021/08/03 05:51:42;;;;;;;4.37;2.93;;;17.10;99.90;;;;;;5052251;28;20949;-78
2021/08/03 05:54:08;;;;;;;3.13;2.33;;;17.10;99.90;;;;;;5070258;28;20385;-80
2021/08/03 05:56:33;;;;;;;4.17;2.80;;;17.10;99.90;;;;;;5069585;28;20382;-77
2021/08/03 05:58:59;;;;;;;5.88;2.78;;;17.10;99.90;;;;;;5069902;28;20417;-80
2021/08/03 06:01:25;;;;;;;5.37;3.23;;;17.10;99.90;;;;;;5069759;28;20386;-80
2021/08/03 06:03:50;;;;;;;3.90;2.53;;;17.10;99.90;;;;;;5069414;28;20526;-80
2021/08/03 06:06:19;;;;;;;5.20;2.70;;;17.10;99.90;;;;;;5051454;28;20383;-77
2021/08/03 06:08:45;;;;;;;6.03;2.30;;;17.10;99.90;;;;;;5051682;28;20405;-80
2021/08/03 06:11:22;;;;;;;5.00;2.83;;;17.20;99.90;;;;;;5070795;28;20873;-77
2021/08/03 06:13:52;;;;;;;4.32;2.78;;;17.20;99.90;;;;;;5070064;28;20876;-79
2021/08/03 06:16:20;;;;;;;5.78;2.88;;;17.10;99.90;;;;;;5069196;28;20393;-80
2021/08/03 06:18:47;;;;;;;5.72;3.00;;;17.10;99.90;;;;;;5069714;28;20420;-76
2021/08/03 06:21:14;;;;;;;6.68;2.88;;;17.00;99.90;;;;;;5069829;28;20443;-79
2021/08/03 06:23:44;;;;;;;6.40;3.08;;;17.00;99.90;;;;;;5052247;28;20477;-79
2021/08/03 06:26:10;;;;;;;4.68;2.90;;;17.00;99.90;;;;;;5069879;28;20378;-79
2021/08/03 06:28:36;;;;;;;5.75;2.78;;;17.10;99.90;;;;;;5070059;28;20450;-79
2021/08/03 06:31:03;;;;;;;8.88;2.90;;;17.00;99.90;;;;;;5069705;28;20982;-80
2021/08/03 06:33:29;;;;;;;4.05;2.58;;;17.10;99.90;;;;;;5070890;28;20918;-82
2021/08/03 06:35:55;;;;;;;5.75;2.97;;;17.10;99.90;;;;;;5072121;28;20378;-79
2021/08/03 06:38:21;;;;;;;6.00;2.70;;;17.20;99.90;;;;;;5051294;28;20439;-79
2021/08/03 06:41:14;;;;;;;6.20;2.80;;;17.20;99.90;;;;;;5053798;28;20393;-80
2021/08/03 06:43:52;;;;;;;5.38;2.70;;;17.30;99.90;;;;;;5070705;28;20397;-77
2021/08/03 06:46:19;;;;;;;4.60;2.45;;;17.40;99.90;;;;;;5069993;28;20873;-80
2021/08/03 06:49:02;;;;;;;9.32;2.90;;;17.50;99.90;;;;;;5070434;28;20366;-79
2021/08/03 06:51:33;;;;;;;7.65;2.70;;;17.70;99.90;;;;;;5069871;28;20477;-77
2021/08/03 06:54:03;;;;;;;6.13;2.95;;;17.90;99.90;;;;;;5053210;28;20382;-80
2021/08/03 06:56:34;;;;;;;5.15;2.90;;;18.20;99.90;;;;;;5053241;28;20390;-81
2021/08/03 06:59:17;;;;;;;6.38;2.60;;;18.50;99.90;;;;;;5051901;28;20413;-78
2021/08/03 07:02:04;;;;;;;5.75;2.38;;;18.70;99.90;;;;;;5069404;28;20378;-79
2021/08/03 07:04:33;;;;;;;8.07;3.23;;;19.00;99.90;;;;;;5053229;28;20378;-79
2021/08/03 07:07:01;;;;;;;5.72;2.50;;;19.40;99.90;;;;;;5071280;28;20393;-81
2021/08/03 07:09:28;;;;;;;7.25;2.53;;;19.70;99.90;;;;;;5070337;28;20417;-81
2021/08/03 07:11:54;;;;;;;4.65;2.10;;;19.90;99.90;;;;;;5056841;28;20390;-80
2021/08/03 07:14:23;;;;;;;4.13;2.28;;;20.10;99.90;;;;;;5091737;28;20729;-78
2021/08/03 07:16:52;;;;;;;4.50;2.50;;;20.00;99.90;;;;;;5082998;28;20385;-80
2021/08/03 07:19:19;;;;;;;6.95;2.40;;;20.00;99.90;;;;;;5073047;28;20434;-79
2021/08/03 07:21:45;;;;;;;7.55;2.70;;;20.00;99.90;;;;;;5072367;28;20878;-79
2021/08/03 07:24:12;;;;;;;5.32;2.20;;;20.00;99.90;;;;;;5071372;28;20461;-80
2021/08/03 07:26:38;;;;;;;4.15;2.15;;;20.00;99.90;;;;;;5070847;28;20374;-80
2021/08/03 07:29:07;;;;;;;4.38;2.60;;;20.00;99.90;;;;;;5079882;28;20382;-83
2021/08/03 07:31:34;;;;;;;5.53;2.07;;;20.00;99.90;;;;;;5080045;28;20370;-77
2021/08/03 07:33:59;;;;;;;7.00;2.40;;;20.00;99.90;;;;;;5075209;28;20928;-79
2021/08/03 07:36:25;;;;;;;5.70;2.60;;;20.00;99.90;;;;;;5078220;28;20378;-79
2021/08/03 07:38:54;;;;;;;3.97;2.30;;;19.90;99.90;;;;;;5075850;28;20437;-79
2021/08/03 07:41:22;;;;;;;5.57;2.53;;;20.00;99.90;;;;;;5063783;28;20539;-78
2021/08/03 07:43:47;;;;;;;6.05;2.60;;;20.20;99.90;;;;;;5080067;28;20449;-82
2021/08/03 07:46:13;;;;;;;8.67;3.03;;;20.60;99.90;;;;;;5074682;28;21177;-78
2021/08/03 07:48:39;;;;;;;5.85;2.72;;;20.70;99.90;;;;;;5076967;28;20383;-80
2021/08/03 07:51:07;;;;;;;9.60;3.00;;;20.70;99.90;;;;;;5077047;28;20461;-80
2021/08/03 07:53:35;;;;;;;13.52;3.30;;;20.80;99.90;;;;;;5075353;28;20396;-81
2021/08/03 07:56:00;;;;;;;5.90;2.22;;;20.90;99.90;;;;;;5074476;28;20366;-81
2021/08/03 07:58:26;;;;;;;7.17;2.47;;;20.80;99.90;;;;;;5071627;28;20959;-80
2021/08/03 08:00:52;;;;;;;6.60;2.40;;;20.80;99.90;;;;;;5073977;28;20420;-79
2021/08/03 08:03:17;;;;;;;10.33;2.43;;;21.00;99.90;;;;;;5074386;28;20398;-78
2021/08/03 08:05:43;;;;;;;7.47;2.28;;;21.30;99.90;;;;;;5073863;28;20735;-80
2021/08/03 08:08:08;;;;;;;6.80;2.13;;;21.60;99.90;;;;;;5072724;28;20400;-80
2021/08/03 08:10:34;;;;;;;5.43;1.90;;;21.80;99.90;;;;;;5081785;28;20403;-80
2021/08/03 08:12:59;;;;;;;5.05;2.30;;;21.80;99.90;;;;;;5098779;28;20702;-78
2021/08/03 08:15:25;;;;;;;5.20;1.83;;;22.00;99.90;;;;;;5101148;28;20445;-81
2021/08/03 08:17:51;;;;;;;7.20;2.50;;;22.00;99.90;;;;;;5081336;28;20736;-80
2021/08/03 08:20:16;;;;;;;6.77;2.10;;;22.20;99.90;;;;;;5099951;28;20380;-80
2021/08/03 08:22:43;;;;;;;4.83;1.90;;;22.20;99.90;;;;;;5099868;28;20377;-80
2021/08/03 08:25:10;;;;;;;5.88;2.00;;;22.10;99.90;;;;;;5099955;28;20376;-82
2021/08/03 08:27:40;;;;;;;5.85;2.08;;;22.00;99.90;;;;;;5093561;28;20444;-81
2021/08/03 08:30:07;;;;;;;3.33;2.10;;;22.00;99.90;;;;;;5091259;28;20387;-80
2021/08/03 08:32:35;;;;;;;4.33;1.43;;;22.00;99.90;;;;;;5094085;28;20957;-80
2021/08/03 08:35:02;;;;;;;7.30;2.08;;;21.80;99.90;;;;;;5099790;28;20372;-79
2021/08/03 08:37:28;;;;;;;5.18;1.80;;;21.80;99.90;;;;;;5098535;28;20378;-80
2021/08/03 08:39:53;;;;;;;3.90;1.77;;;21.60;99.90;;;;;;5101589;28;20440;-81
2021/08/03 08:42:19;;;;;;;5.32;1.90;;;21.30;99.90;;;;;;5100625;28;20392;-81
2021/08/03 08:44:48;;;;;;;3.87;1.60;;;21.10;99.90;;;;;;5099839;28;20388;-80
2021/08/03 08:47:17;;;;;;;6.37;2.13;;;21.10;99.90;;;;;;5103717;28;20863;-79
2021/08/03 08:49:46;;;;;;;6.43;2.20;;;21.10;99.90;;;;;;5102009;28;20852;-78
2021/08/03 08:52:16;;;;;;;4.90;1.95;;;21.20;99.90;;;;;;5099659;28;20501;-80
2021/08/03 08:54:42;;;;;;;4.07;1.60;;;21.50;99.90;;;;;;5080838;28;20413;-78
2021/08/03 08:57:08;;;;;;;3.97;1.50;;;21.90;99.90;;;;;;5099447;28;20372;-82
2021/08/03 08:59:34;;;;;;;3.85;1.50;;;22.30;99.90;;;;;;5098894;28;21009;-79
2021/08/03 09:02:00;;;;;;;3.53;1.33;;;22.70;99.90;;;;;;5099219;28;20711;-78
2021/08/03 09:04:26;;;;;;;7.25;1.67;;;23.20;99.90;;;;;;5099580;28;20375;-81
2021/08/03 09:07:05;;;;;;;1.90;1.20;;;23.70;99.90;;;;;;5099039;28;20518;-80
2021/08/03 09:09:41;;;;;;;3.60;1.17;;;23.80;99.90;;;;;;5080905;28;20391;-79
2021/08/03 09:12:07;;;;;;;3.70;1.10;;;23.80;99.90;;;;;;5101131;28;20456;-80
2021/08/03 09:14:39;;;;;;;2.13;1.10;;;23.60;99.90;;;;;;5098350;28;20874;-82
2021/08/03 09:17:04;;;;;;;3.45;1.20;;;23.50;99.90;;;;;;5097270;28;20377;-81
2021/08/03 09:19:40;;;;;;;4.27;1.20;;;23.70;99.90;;;;;;5098113;28;20746;-82
2021/08/03 09:22:29;;;;;;;3.87;1.20;;;23.80;99.90;;;;;;5096773;28;20445;-80
2021/08/03 09:25:13;;;;;;;3.03;1.25;;;23.40;99.90;;;;;;5080490;28;20737;-80
2021/08/03 09:27:45;;;;;;;4.78;1.40;;;23.60;99.90;;;;;;5098225;28;20379;-80
2021/08/03 09:30:32;;;;;;;4.43;1.25;;;23.50;99.90;;;;;;5098296;28;20367;-80
2021/08/03 09:32:58;;;;;;;3.40;1.08;;;23.70;99.90;;;;;;5098189;28;20423;-80
2021/08/03 09:35:26;;;;;;;2.80;1.20;;;23.80;99.90;;;;;;5098012;28;20386;-79
2021/08/03 09:37:53;;;;;;;3.03;1.17;;;23.80;99.90;;;;;;5099222;28;20466;-77
2021/08/03 09:40:30;;;;;;;4.85;1.60;;;23.50;99.90;;;;;;5079374;28;20386;-81
2021/08/03 09:43:14;;;;;;;2.88;1.42;;;23.40;99.90;;;;;;5079537;28;20389;-81
2021/08/03 09:45:43;;;;;;;5.07;1.67;;;23.00;99.90;;;;;;5097576;28;20381;-81
2021/08/03 09:48:09;;;;;;;4.88;2.00;;;22.40;99.90;;;;;;5097276;28;20872;-80
2021/08/03 09:51:00;;;;;;;3.42;1.33;;;22.10;99.90;;;;;;5096578;28;20374;-81
2021/08/03 09:53:37;;;;;;;2.85;1.30;;;21.80;99.90;;;;;;5092915;28;20452;-80
2021/08/03 09:56:03;;;;;;;1.60;0.88;;;21.60;99.90;;;;;;5089295;28;20463;-81
2021/08/03 09:58:29;;;;;;;2.72;1.25;;;21.50;99.90;;;;;;5089985;28;20507;-81
2021/08/03 10:00:54;;;;;;;4.25;1.10;;;21.50;99.90;;;;;;5071999;28;20469;-80
2021/08/03 10:03:22;;;;;;;4.00;1.20;;;21.50;99.90;;;;;;5089916;28;20368;-79
2021/08/03 10:05:49;;;;;;;2.22;1.25;;;21.50;99.90;;;;;;5079063;28;20389;-79
2021/08/03 10:08:16;;;;;;;3.40;1.20;;;21.50;99.90;;;;;;5070503;28;20736;-81
2021/08/03 10:10:43;;;;;;;4.00;1.20;;;21.70;99.90;;;;;;5070290;28;20380;-78
2021/08/03 10:13:11;;;;;;;2.35;1.30;;;21.90;99.90;;;;;;5081503;28;20404;-81
2021/08/03 10:15:36;;;;;;;4.37;1.30;;;22.10;99.90;;;;;;5092179;28;20730;-78
2021/08/03 10:18:03;;;;;;;6.93;1.63;;;22.50;99.90;;;;;;5072300;28;20803;-79
2021/08/03 10:20:28;;;;;;;3.33;1.30;;;23.00;99.90;;;;;;5091596;28;20365;-80
2021/08/03 10:23:05;;;;;;;20.50;2.22;;;23.50;99.90;;;;;;5078963;28;20396;-84
2021/08/03 10:25:41;;;;;;;4.33;1.13;;;23.80;99.90;;;;;;5074042;28;20382;-80
2021/08/03 10:28:19;;;;;;;3.30;1.38;;;23.60;99.90;;;;;;5092635;28;20373;-78
2021/08/03 10:30:46;;;;;;;4.60;1.38;;;24.00;99.90;;;;;;5093493;28;20471;-78
2021/08/03 10:33:41;;;;;;;4.47;1.20;;;24.10;99.40;;;;;;5093977;28;20361;-78
2021/08/03 10:36:07;;;;;;;2.63;1.30;;;24.40;99.90;;;;;;5094746;28;20361;-78
2021/08/03 10:38:33;;;;;;;5.45;1.52;;;24.60;99.90;;;;;;5074175;28;20828;-78
2021/08/03 10:41:00;;;;;;;7.43;1.70;;;24.60;99.90;;;;;;5072313;28;20437;-79
2021/08/03 10:43:35;;;;;;;3.17;1.07;;;24.60;99.50;;;;;;5089989;28;20381;-80
2021/08/03 10:46:07;;;;;;;3.65;1.30;;;24.60;98.80;;;;;;5072991;28;20385;-83
2021/08/03 10:48:39;;;;;;;4.50;1.50;;;24.00;99.30;;;;;;5091568;28;20430;-79
2021/08/03 10:51:16;;;;;;;4.03;1.25;;;23.90;99.20;;;;;;5093465;28;20859;-78
2021/08/03 10:54:00;;;;;;;3.60;1.45;;;23.70;99.90;;;;;;5092582;28;20383;-78
2021/08/03 10:56:26;;;;;;;3.33;1.50;;;23.50;99.70;;;;;;5089918;28;20372;-78
2021/08/03 10:59:29;;;;;;;3.20;1.40;;;23.20;99.90;;;;;;5089447;28;20915;-79
2021/08/03 11:01:55;;;;;;;3.05;1.38;;;22.80;99.90;;;;;;5075370;28;20415;-78
2021/08/03 11:04:46;;;;;;;2.50;1.53;;;22.10;99.90;;;;;;5093820;28;20453;-79
2021/08/03 11:07:32;;;;;;;4.22;1.60;;;21.80;99.90;;;;;;5075833;28;20380;-79
2021/08/03 11:10:19;;;;;;;3.47;1.50;;;21.60;99.90;;;;;;5094635;28;20880;-79
2021/08/03 11:12:52;;;;;;;2.50;1.70;;;21.60;99.90;;;;;;5094871;28;20376;-79
2021/08/03 11:15:24;;;;;;;3.50;1.70;;;21.70;99.90;;;;;;5093109;28;20372;-78
2021/08/03 11:17:56;;;;;;;4.13;1.65;;;21.80;99.90;;;;;;5075735;28;20372;-78
2021/08/03 11:20:37;;;;;;;6.47;1.67;;;21.90;99.90;;;;;;5092914;28;20411;-78
2021/08/03 11:23:05;;;;;;;2.50;1.60;;;22.00;99.90;;;;;;5081792;28;20459;-80
2021/08/03 11:25:32;;;;;;;3.88;1.65;;;22.20;99.90;;;;;;5081663;28;20872;-80
2021/08/03 11:28:14;;;;;;;2.33;1.45;;;22.50;99.90;;;;;;5078803;28;20374;-83
2021/08/03 11:30:43;;;;;;;2.28;1.40;;;22.70;99.90;;;;;;5067175;28;20385;-80
2021/08/03 11:33:10;;;;;;;4.10;1.73;;;22.60;99.90;;;;;;5073999;28;20380;-80
2021/08/03 11:35:36;;;;;;;3.20;1.35;;;22.40;99.90;;;;;;5091029;28;20380;-80
2021/08/03 11:38:14;;;;;;;3.03;1.42;;;22.30;99.90;;;;;;5073262;28;20445;-78
2021/08/03 11:40:41;;;;;;;3.13;1.73;;;22.60;99.90;;;;;;5091724;28;20395;-80
2021/08/03 11:43:07;;;;;;;3.40;1.52;;;23.00;99.90;;;;;;5090474;28;20541;-79
2021/08/03 11:45:36;;;;;;;3.70;1.70;;;23.50;99.90;;;;;;5093686;28;20493;-80
2021/08/03 11:48:04;;;;;;;3.35;1.58;;;24.00;99.90;;;;;;5072507;28;21225;-79
2021/08/03 11:50:31;;;;;;;3.88;1.52;;;24.10;99.90;;;;;;5091970;28;20376;-79
2021/08/03 11:53:14;;;;;;;4.30;1.60;;;24.20;99.00;;;;;;5084136;28;20372;-79
2021/08/03 11:55:49;;;;;;;4.97;1.70;;;23.70;99.20;;;;;;5066858;28;20384;-80
2021/08/03 11:58:23;;;;;;;3.92;1.60;;;23.20;99.80;;;;;;5088640;28;20521;-81
2021/08/03 12:00:57;;;;;;;3.97;2.10;;;23.00;99.90;;;;;;5076286;28;20390;-80
2021/08/03 12:03:32;;;;;;;3.60;1.70;;;22.70;99.90;;;;;;5077968;28;20386;-79
2021/08/03 12:06:02;;;;;;;5.00;1.55;;;22.50;99.90;;;;;;5079806;28;20914;-81
2021/08/03 12:08:36;;;;;;;3.45;1.40;;;22.60;99.90;;;;;;5091232;28;20467;-80
2021/08/03 12:11:02;;;;;;;3.08;1.52;;;22.70;99.90;;;;;;5092264;28;20815;-80
2021/08/03 12:13:37;;;;;;;2.60;1.55;;;22.90;99.90;;;;;;5066880;28;20401;-81
2021/08/03 12:16:05;;;;;;;2.17;1.55;;;22.70;99.90;;;;;;5076421;28;20961;-79
2021/08/03 12:18:43;;;;;;;2.67;1.80;;;22.60;99.90;;;;;;5071916;28;20497;-81
2021/08/03 12:21:10;;;;;;;4.05;1.60;;;22.50;99.90;;;;;;5101666;28;20370;-80
2021/08/03 12:23:38;;;;;;;2.50;1.70;;;22.30;99.90;;;;;;5099269;28;20390;-81
2021/08/03 12:26:16;;;;;;;3.97;1.65;;;22.10;99.90;;;;;;5087709;28;20380;-81
2021/08/03 12:28:52;;;;;;;3.45;1.73;;;22.10;99.90;;;;;;5073291;28;21184;-82
2021/08/03 12:31:53;;;;;;;2.80;1.80;;;22.00;99.90;;;;;;5077150;28;20383;-79
2021/08/03 12:34:20;;;;;;;21.95;3.10;;;22.20;99.90;;;;;;4982761;28;20913;-77
2021/08/03 12:36:47;;;;;;;12.85;2.45;;;22.40;99.90;;;;;;5079667;28;20484;-80
2021/08/03 12:39:40;;;;;;;5.60;1.80;;;22.60;99.90;;;;;;5096207;28;20460;-79
2021/08/03 12:44:46;;;;;;;5.53;1.85;;;22.50;99.90;;;;;;5083075;28;20386;-77
2021/08/03 12:47:24;;;;;;;4.32;1.98;;;22.50;99.90;;;;;;5086724;28;20387;-78
2021/08/03 12:49:59;;;;;;;3.80;1.80;;;22.30;99.80;;;;;;5095054;28;20374;-79
2021/08/03 12:52:25;;;;;;;4.43;2.00;;;22.30;99.90;;;;;;5118354;28;20423;-78
2021/08/03 12:55:10;;;;;;;5.18;2.00;;;22.30;99.90;;;;;;5114870;28;20371;-77
2021/08/03 12:57:53;;;;;;;5.68;1.98;;;22.40;99.90;;;;;;5097937;28;20412;-79
2021/08/03 13:00:39;;;;;;;5.15;2.17;;;22.50;99.90;;;;;;5063360;28;20453;-79
2021/08/03 13:03:11;;;;;;;4.00;1.90;;;22.60;99.90;;;;;;5093089;28;20377;-78